Pagina principală
METAR-TAF:

METAR-TAF

Aeroporturi :

Santa Maria, Rio Grande do Sul, Brazilia

Latitudine: 29-43S, longitudine: 053-42W, elevație: 85 m

Observații meteo curente

Raportul a fost făcut în urmă cu 1 oră și 6 de minute, la 03:00 UTC
Vânt 4 kt de la Est/Sud-est, variabil între Est și Sud/Sud-est
Temperatură 12°C
Umiditate 88%
Presiune 1023 hPa
Vizibilitate de 10 km sau mai mult
Nori puțini la o înălțime de 2000 picior
Nori fragmentați la o înălțime de 10000 picior

METAR: SBSM 190300Z 12004KT 090V150 9999 FEW020 BKN100 12/10 Q1023

Ora: 01:06 (04:06 UTC)

Prognoză

Raportul a fost făcut în urmă cu 7 ore și 6 de minute, la 21:00 UTC
Prognoză valabilă de la 19 ora 00 UTC la 19 ora 12 UTC
Vânt 6 kt de la Sud-est
Vizibilitate de 10 km sau mai mult
Nori împrăștiați la o înălțime de 2000 picior

TAF: SBSM 182100Z 1900/1912 13006KT 9999 SCT020 TX11/1900Z TN07/1909Z RMK PDZ

Observații și prognoze meteo pentru peste 4.000 de aeroporturi (rapoarte METAR și TAF).

Stațiile disponibile sunt reprezentate pe hartă prin puncte galbene și roșii.

Țineți indicatorul mouse-ului pe punctul dorit pentru a vedea denumirea stației.

Apoi, faceți clic pentru a vedea observațiile și prognozele meteorologice.

Pentru a schimba harta: Pentru mărire, faceți clic pe butoanele verzi cu cruce neagră; pentru micșorare, pe butonul verde cu o liniuță; pentru hărți învecinate, pe săgețile verzi.


METAR-TAF: